sensor_id;sensor_type;location;lat;lon;timestamp;P1;durP1;ratioP1;P2;durP2;ratioP2
82526;SDS011;72188;41.974;21.456;2023-12-07T00:02:17;107.45;;;57.72;;
82526;SDS011;72188;41.974;21.456;2023-12-07T00:04:43;113.65;;;57.45;;
82526;SDS011;72188;41.974;21.456;2023-12-07T00:07:09;101.95;;;56.10;;
82526;SDS011;72188;41.974;21.456;2023-12-07T00:09:35;111.22;;;60.72;;
82526;SDS011;72188;41.974;21.456;2023-12-07T00:12:01;106.70;;;57.35;;
82526;SDS011;72188;41.974;21.456;2023-12-07T00:14:27;98.82;;;59.10;;
82526;SDS011;72188;41.974;21.456;2023-12-07T00:16:53;104.55;;;62.55;;
82526;SDS011;72188;41.974;21.456;2023-12-07T00:19:19;113.95;;;60.00;;
82526;SDS011;72188;41.974;21.456;2023-12-07T00:21:45;98.68;;;56.15;;
82526;SDS011;72188;41.974;21.456;2023-12-07T00:24:11;110.78;;;58.95;;
82526;SDS011;72188;41.974;21.456;2023-12-07T00:26:37;105.70;;;56.13;;
82526;SDS011;72188;41.974;21.456;2023-12-07T00:29:03;109.22;;;60.25;;
82526;SDS011;72188;41.974;21.456;2023-12-07T00:31:30;105.15;;;57.00;;
82526;SDS011;72188;41.974;21.456;2023-12-07T00:33:56;100.40;;;55.17;;
82526;SDS011;72188;41.974;21.456;2023-12-07T00:36:22;93.72;;;54.97;;
82526;SDS011;72188;41.974;21.456;2023-12-07T00:38:48;94.15;;;53.35;;
82526;SDS011;72188;41.974;21.456;2023-12-07T00:41:14;93.20;;;50.40;;
82526;SDS011;72188;41.974;21.456;2023-12-07T00:43:41;95.55;;;51.75;;
82526;SDS011;72188;41.974;21.456;2023-12-07T00:46:07;101.75;;;51.97;;
82526;SDS011;72188;41.974;21.456;2023-12-07T00:48:33;100.53;;;53.85;;
82526;SDS011;72188;41.974;21.456;2023-12-07T00:50:59;92.47;;;50.63;;
82526;SDS011;72188;41.974;21.456;2023-12-07T00:53:25;100.70;;;51.97;;
82526;SDS011;72188;41.974;21.456;2023-12-07T00:55:51;95.90;;;51.78;;
82526;SDS011;72188;41.974;21.456;2023-12-07T00:58:17;92.70;;;51.45;;
82526;SDS011;72188;41.974;21.456;2023-12-07T01:00:43;91.50;;;50.35;;
82526;SDS011;72188;41.974;21.456;2023-12-07T01:03:09;94.00;;;50.85;;
82526;SDS011;72188;41.974;21.456;2023-12-07T01:05:35;92.57;;;55.35;;
82526;SDS011;72188;41.974;21.456;2023-12-07T01:08:01;94.07;;;53.67;;
82526;SDS011;72188;41.974;21.456;2023-12-07T01:10:28;97.85;;;53.10;;
82526;SDS011;72188;41.974;21.456;2023-12-07T01:12:54;97.70;;;53.25;;
82526;SDS011;72188;41.974;21.456;2023-12-07T01:15:20;94.10;;;52.75;;
82526;SDS011;72188;41.974;21.456;2023-12-07T01:17:46;95.75;;;52.60;;
82526;SDS011;72188;41.974;21.456;2023-12-07T01:20:12;90.80;;;51.47;;
82526;SDS011;72188;41.974;21.456;2023-12-07T01:22:39;87.13;;;48.65;;
82526;SDS011;72188;41.974;21.456;2023-12-07T01:25:06;86.43;;;50.28;;
82526;SDS011;72188;41.974;21.456;2023-12-07T01:27:32;89.57;;;48.53;;
82526;SDS011;72188;41.974;21.456;2023-12-07T01:29:58;97.10;;;50.88;;
82526;SDS011;72188;41.974;21.456;2023-12-07T01:32:25;77.68;;;49.47;;
82526;SDS011;72188;41.974;21.456;2023-12-07T01:34:51;95.10;;;52.97;;
82526;SDS011;72188;41.974;21.456;2023-12-07T01:37:17;92.18;;;49.65;;
82526;SDS011;72188;41.974;21.456;2023-12-07T01:39:43;95.80;;;51.47;;
82526;SDS011;72188;41.974;21.456;2023-12-07T01:42:09;85.15;;;48.58;;
82526;SDS011;72188;41.974;21.456;2023-12-07T01:47:03;87.43;;;50.42;;
82526;SDS011;72188;41.974;21.456;2023-12-07T01:49:30;90.90;;;49.22;;
82526;SDS011;72188;41.974;21.456;2023-12-07T01:51:56;103.70;;;55.90;;
82526;SDS011;72188;41.974;21.456;2023-12-07T01:54:22;92.28;;;50.65;;
82526;SDS011;72188;41.974;21.456;2023-12-07T01:56:49;97.47;;;49.97;;
82526;SDS011;72188;41.974;21.456;2023-12-07T01:59:15;88.28;;;50.42;;
82526;SDS011;72188;41.974;21.456;2023-12-07T02:01:41;85.82;;;48.33;;
82526;SDS011;72188;41.974;21.456;2023-12-07T02:04:07;90.07;;;46.63;;
82526;SDS011;72188;41.974;21.456;2023-12-07T02:06:33;84.70;;;47.63;;
82526;SDS011;72188;41.974;21.456;2023-12-07T02:08:59;90.05;;;47.17;;
82526;SDS011;72188;41.974;21.456;2023-12-07T02:11:26;86.95;;;49.75;;
82526;SDS011;72188;41.974;21.456;2023-12-07T02:13:52;88.25;;;48.53;;
82526;SDS011;72188;41.974;21.456;2023-12-07T02:16:33;84.20;;;47.58;;
82526;SDS011;72188;41.974;21.456;2023-12-07T02:21:34;89.65;;;47.40;;
82526;SDS011;72188;41.974;21.456;2023-12-07T02:24:02;102.40;;;50.53;;
82526;SDS011;72188;41.974;21.456;2023-12-07T02:29:16;81.80;;;46.08;;
82526;SDS011;72188;41.974;21.456;2023-12-07T02:31:42;85.55;;;48.80;;
82526;SDS011;72188;41.974;21.456;2023-12-07T02:34:08;82.93;;;47.10;;
82526;SDS011;72188;41.974;21.456;2023-12-07T02:36:35;87.10;;;52.00;;
82526;SDS011;72188;41.974;21.456;2023-12-07T02:39:03;88.47;;;50.20;;
82526;SDS011;72188;41.974;21.456;2023-12-07T02:43:57;75.63;;;42.80;;
82526;SDS011;72188;41.974;21.456;2023-12-07T02:46:24;82.80;;;47.53;;
82526;SDS011;72188;41.974;21.456;2023-12-07T02:48:50;88.22;;;47.72;;
82526;SDS011;72188;41.974;21.456;2023-12-07T02:51:16;88.53;;;47.65;;
82526;SDS011;72188;41.974;21.456;2023-12-07T02:53:43;81.30;;;44.13;;
82526;SDS011;72188;41.974;21.456;2023-12-07T02:56:09;70.50;;;42.35;;
82526;SDS011;72188;41.974;21.456;2023-12-07T02:58:35;83.57;;;43.85;;
82526;SDS011;72188;41.974;21.456;2023-12-07T03:01:01;80.72;;;44.17;;
82526;SDS011;72188;41.974;21.456;2023-12-07T03:03:27;84.70;;;46.08;;
82526;SDS011;72188;41.974;21.456;2023-12-07T03:05:53;83.50;;;45.47;;
82526;SDS011;72188;41.974;21.456;2023-12-07T03:08:19;86.03;;;46.33;;
82526;SDS011;72188;41.974;21.456;2023-12-07T03:10:45;79.60;;;45.50;;
82526;SDS011;72188;41.974;21.456;2023-12-07T03:13:11;82.10;;;47.78;;
82526;SDS011;72188;41.974;21.456;2023-12-07T03:15:37;80.20;;;47.03;;
82526;SDS011;72188;41.974;21.456;2023-12-07T03:18:04;84.38;;;47.33;;
82526;SDS011;72188;41.974;21.456;2023-12-07T03:20:30;77.90;;;45.90;;
82526;SDS011;72188;41.974;21.456;2023-12-07T03:22:56;77.40;;;45.03;;
82526;SDS011;72188;41.974;21.456;2023-12-07T03:25:22;76.95;;;45.35;;
82526;SDS011;72188;41.974;21.456;2023-12-07T03:27:48;72.75;;;42.78;;
82526;SDS011;72188;41.974;21.456;2023-12-07T03:30:15;67.10;;;39.88;;
82526;SDS011;72188;41.974;21.456;2023-12-07T03:35:08;65.97;;;37.35;;
82526;SDS011;72188;41.974;21.456;2023-12-07T03:37:34;64.55;;;35.60;;
82526;SDS011;72188;41.974;21.456;2023-12-07T03:40:00;53.95;;;32.25;;
82526;SDS011;72188;41.974;21.456;2023-12-07T03:42:29;56.38;;;33.08;;
82526;SDS011;72188;41.974;21.456;2023-12-07T03:44:55;59.40;;;34.42;;
82526;SDS011;72188;41.974;21.456;2023-12-07T03:47:21;52.88;;;30.63;;
82526;SDS011;72188;41.974;21.456;2023-12-07T03:49:47;53.35;;;32.53;;
82526;SDS011;72188;41.974;21.456;2023-12-07T03:52:13;49.47;;;30.83;;
82526;SDS011;72188;41.974;21.456;2023-12-07T03:54:39;51.75;;;29.70;;
82526;SDS011;72188;41.974;21.456;2023-12-07T03:57:05;52.72;;;29.17;;
82526;SDS011;72188;41.974;21.456;2023-12-07T03:59:32;53.15;;;31.50;;
82526;SDS011;72188;41.974;21.456;2023-12-07T04:01:58;51.20;;;28.52;;
82526;SDS011;72188;41.974;21.456;2023-12-07T04:04:24;47.50;;;28.75;;
82526;SDS011;72188;41.974;21.456;2023-12-07T04:06:50;56.65;;;29.80;;
82526;SDS011;72188;41.974;21.456;2023-12-07T04:09:16;49.15;;;28.55;;
82526;SDS011;72188;41.974;21.456;2023-12-07T04:11:42;52.22;;;30.02;;
82526;SDS011;72188;41.974;21.456;2023-12-07T04:14:08;54.65;;;28.42;;
82526;SDS011;72188;41.974;21.456;2023-12-07T04:16:34;54.45;;;33.13;;
82526;SDS011;72188;41.974;21.456;2023-12-07T04:19:00;50.20;;;30.55;;
82526;SDS011;72188;41.974;21.456;2023-12-07T04:21:27;52.33;;;30.95;;
82526;SDS011;72188;41.974;21.456;2023-12-07T04:23:53;53.17;;;29.75;;
82526;SDS011;72188;41.974;21.456;2023-12-07T04:26:19;79.32;;;39.35;;
82526;SDS011;72188;41.974;21.456;2023-12-07T04:28:45;62.50;;;33.28;;
82526;SDS011;72188;41.974;21.456;2023-12-07T04:31:11;64.28;;;34.80;;
82526;SDS011;72188;41.974;21.456;2023-12-07T04:33:37;54.90;;;31.75;;
82526;SDS011;72188;41.974;21.456;2023-12-07T04:36:04;61.42;;;35.13;;
82526;SDS011;72188;41.974;21.456;2023-12-07T04:38:30;59.47;;;35.25;;
82526;SDS011;72188;41.974;21.456;2023-12-07T04:40:57;60.13;;;31.25;;
82526;SDS011;72188;41.974;21.456;2023-12-07T04:43:24;65.82;;;35.55;;
82526;SDS011;72188;41.974;21.456;2023-12-07T04:45:50;52.72;;;31.80;;
82526;SDS011;72188;41.974;21.456;2023-12-07T04:48:16;57.50;;;33.83;;
82526;SDS011;72188;41.974;21.456;2023-12-07T04:50:42;60.88;;;33.75;;
82526;SDS011;72188;41.974;21.456;2023-12-07T04:53:08;53.47;;;31.98;;
82526;SDS011;72188;41.974;21.456;2023-12-07T04:55:34;61.17;;;31.67;;
82526;SDS011;72188;41.974;21.456;2023-12-07T04:58:00;52.90;;;29.88;;
82526;SDS011;72188;41.974;21.456;2023-12-07T05:00:26;56.03;;;29.58;;
82526;SDS011;72188;41.974;21.456;2023-12-07T05:02:53;60.13;;;31.67;;
82526;SDS011;72188;41.974;21.456;2023-12-07T05:05:19;56.90;;;29.95;;
82526;SDS011;72188;41.974;21.456;2023-12-07T05:07:45;60.17;;;30.20;;
82526;SDS011;72188;41.974;21.456;2023-12-07T05:10:11;58.92;;;30.42;;
82526;SDS011;72188;41.974;21.456;2023-12-07T05:12:37;58.47;;;30.08;;
82526;SDS011;72188;41.974;21.456;2023-12-07T05:15:04;46.05;;;27.77;;
82526;SDS011;72188;41.974;21.456;2023-12-07T05:17:31;53.67;;;29.40;;
82526;SDS011;72188;41.974;21.456;2023-12-07T05:19:57;55.25;;;30.92;;
82526;SDS011;72188;41.974;21.456;2023-12-07T05:22:23;51.28;;;29.83;;
82526;SDS011;72188;41.974;21.456;2023-12-07T05:24:49;54.92;;;31.33;;
82526;SDS011;72188;41.974;21.456;2023-12-07T05:27:16;57.33;;;31.35;;
82526;SDS011;72188;41.974;21.456;2023-12-07T05:29:42;62.30;;;33.05;;
82526;SDS011;72188;41.974;21.456;2023-12-07T05:32:08;56.30;;;31.95;;
82526;SDS011;72188;41.974;21.456;2023-12-07T05:34:34;66.20;;;38.47;;
82526;SDS011;72188;41.974;21.456;2023-12-07T05:37:01;58.40;;;31.95;;
82526;SDS011;72188;41.974;21.456;2023-12-07T05:39:27;66.65;;;31.70;;
82526;SDS011;72188;41.974;21.456;2023-12-07T05:41:53;62.67;;;30.70;;
82526;SDS011;72188;41.974;21.456;2023-12-07T05:44:19;63.38;;;34.30;;
82526;SDS011;72188;41.974;21.456;2023-12-07T05:46:48;64.70;;;36.05;;
82526;SDS011;72188;41.974;21.456;2023-12-07T05:49:14;65.00;;;33.50;;
82526;SDS011;72188;41.974;21.456;2023-12-07T05:51:40;60.45;;;32.47;;
82526;SDS011;72188;41.974;21.456;2023-12-07T05:54:06;63.45;;;33.00;;
82526;SDS011;72188;41.974;21.456;2023-12-07T05:56:32;56.20;;;32.50;;
82526;SDS011;72188;41.974;21.456;2023-12-07T05:58:59;55.28;;;31.80;;
82526;SDS011;72188;41.974;21.456;2023-12-07T06:01:25;64.38;;;32.63;;
82526;SDS011;72188;41.974;21.456;2023-12-07T06:03:51;48.38;;;30.70;;
82526;SDS011;72188;41.974;21.456;2023-12-07T06:06:17;49.55;;;27.77;;
82526;SDS011;72188;41.974;21.456;2023-12-07T06:08:44;44.45;;;25.83;;
82526;SDS011;72188;41.974;21.456;2023-12-07T06:11:10;37.20;;;22.38;;
82526;SDS011;72188;41.974;21.456;2023-12-07T06:13:37;29.50;;;16.58;;
82526;SDS011;72188;41.974;21.456;2023-12-07T06:16:03;36.70;;;17.60;;
82526;SDS011;72188;41.974;21.456;2023-12-07T06:18:30;31.83;;;18.42;;
82526;SDS011;72188;41.974;21.456;2023-12-07T06:20:56;30.17;;;14.45;;
82526;SDS011;72188;41.974;21.456;2023-12-07T06:23:22;30.80;;;14.57;;
82526;SDS011;72188;41.974;21.456;2023-12-07T06:25:48;16.50;;;9.68;;
82526;SDS011;72188;41.974;21.456;2023-12-07T06:28:14;22.20;;;12.18;;
82526;SDS011;72188;41.974;21.456;2023-12-07T06:30:40;25.20;;;13.85;;
82526;SDS011;72188;41.974;21.456;2023-12-07T06:33:06;26.83;;;13.82;;
82526;SDS011;72188;41.974;21.456;2023-12-07T06:35:32;30.23;;;16.02;;
82526;SDS011;72188;41.974;21.456;2023-12-07T06:37:59;26.60;;;12.60;;
82526;SDS011;72188;41.974;21.456;2023-12-07T06:40:25;19.88;;;11.90;;
82526;SDS011;72188;41.974;21.456;2023-12-07T06:42:51;32.88;;;15.77;;
82526;SDS011;72188;41.974;21.456;2023-12-07T06:45:17;28.73;;;15.93;;
82526;SDS011;72188;41.974;21.456;2023-12-07T06:47:43;21.90;;;11.95;;
82526;SDS011;72188;41.974;21.456;2023-12-07T06:50:09;31.45;;;15.35;;
82526;SDS011;72188;41.974;21.456;2023-12-07T06:52:39;23.73;;;13.20;;
82526;SDS011;72188;41.974;21.456;2023-12-07T06:55:05;30.80;;;15.02;;
82526;SDS011;72188;41.974;21.456;2023-12-07T06:57:32;20.02;;;11.85;;
82526;SDS011;72188;41.974;21.456;2023-12-07T07:00:01;22.75;;;13.05;;
82526;SDS011;72188;41.974;21.456;2023-12-07T07:02:30;19.08;;;9.95;;
82526;SDS011;72188;41.974;21.456;2023-12-07T07:04:56;15.85;;;8.93;;
82526;SDS011;72188;41.974;21.456;2023-12-07T07:07:23;18.75;;;9.95;;
82526;SDS011;72188;41.974;21.456;2023-12-07T07:09:49;10.90;;;6.88;;
82526;SDS011;72188;41.974;21.456;2023-12-07T07:12:15;13.10;;;8.10;;
82526;SDS011;72188;41.974;21.456;2023-12-07T07:14:41;11.23;;;6.80;;
82526;SDS011;72188;41.974;21.456;2023-12-07T07:17:07;11.40;;;6.28;;
82526;SDS011;72188;41.974;21.456;2023-12-07T07:19:34;7.15;;;4.78;;
82526;SDS011;72188;41.974;21.456;2023-12-07T07:22:00;8.85;;;6.63;;
82526;SDS011;72188;41.974;21.456;2023-12-07T07:24:26;9.05;;;5.53;;
82526;SDS011;72188;41.974;21.456;2023-12-07T07:26:53;7.82;;;5.50;;
82526;SDS011;72188;41.974;21.456;2023-12-07T07:29:19;15.13;;;5.53;;
82526;SDS011;72188;41.974;21.456;2023-12-07T07:31:45;7.13;;;4.75;;
82526;SDS011;72188;41.974;21.456;2023-12-07T07:34:11;14.48;;;8.50;;
82526;SDS011;72188;41.974;21.456;2023-12-07T07:36:37;10.40;;;5.68;;
82526;SDS011;72188;41.974;21.456;2023-12-07T07:39:03;10.55;;;5.53;;
82526;SDS011;72188;41.974;21.456;2023-12-07T07:41:32;6.45;;;5.03;;
82526;SDS011;72188;41.974;21.456;2023-12-07T07:43:59;9.35;;;5.13;;
82526;SDS011;72188;41.974;21.456;2023-12-07T07:46:25;8.30;;;4.53;;
82526;SDS011;72188;41.974;21.456;2023-12-07T07:48:51;8.48;;;5.82;;
82526;SDS011;72188;41.974;21.456;2023-12-07T07:51:17;7.50;;;5.93;;
82526;SDS011;72188;41.974;21.456;2023-12-07T07:53:43;9.85;;;6.03;;
82526;SDS011;72188;41.974;21.456;2023-12-07T07:56:09;11.43;;;7.20;;
82526;SDS011;72188;41.974;21.456;2023-12-07T07:58:35;5.43;;;4.18;;
82526;SDS011;72188;41.974;21.456;2023-12-07T08:01:01;10.05;;;4.93;;
82526;SDS011;72188;41.974;21.456;2023-12-07T08:03:27;10.07;;;7.55;;
82526;SDS011;72188;41.974;21.456;2023-12-07T08:05:53;6.93;;;5.65;;
82526;SDS011;72188;41.974;21.456;2023-12-07T08:08:19;6.72;;;4.88;;
82526;SDS011;72188;41.974;21.456;2023-12-07T08:10:45;9.32;;;5.60;;
82526;SDS011;72188;41.974;21.456;2023-12-07T08:13:11;7.97;;;5.63;;
82526;SDS011;72188;41.974;21.456;2023-12-07T08:15:37;6.70;;;4.95;;
82526;SDS011;72188;41.974;21.456;2023-12-07T08:18:04;6.80;;;4.35;;
82526;SDS011;72188;41.974;21.456;2023-12-07T08:20:30;6.90;;;5.45;;
82526;SDS011;72188;41.974;21.456;2023-12-07T08:22:56;7.88;;;5.10;;
82526;SDS011;72188;41.974;21.456;2023-12-07T08:25:22;7.25;;;4.57;;
82526;SDS011;72188;41.974;21.456;2023-12-07T08:27:48;7.68;;;4.70;;
82526;SDS011;72188;41.974;21.456;2023-12-07T08:30:14;8.07;;;5.22;;
82526;SDS011;72188;41.974;21.456;2023-12-07T08:32:40;6.00;;;4.82;;
82526;SDS011;72188;41.974;21.456;2023-12-07T08:35:07;7.32;;;5.18;;
82526;SDS011;72188;41.974;21.456;2023-12-07T08:37:33;6.75;;;4.10;;
82526;SDS011;72188;41.974;21.456;2023-12-07T08:39:59;8.98;;;6.50;;
82526;SDS011;72188;41.974;21.456;2023-12-07T08:42:25;10.70;;;5.85;;
82526;SDS011;72188;41.974;21.456;2023-12-07T08:44:52;7.43;;;5.55;;
82526;SDS011;72188;41.974;21.456;2023-12-07T08:47:18;6.95;;;5.00;;
82526;SDS011;72188;41.974;21.456;2023-12-07T08:49:44;7.88;;;5.50;;
82526;SDS011;72188;41.974;21.456;2023-12-07T08:52:10;9.18;;;5.93;;
82526;SDS011;72188;41.974;21.456;2023-12-07T08:54:36;6.47;;;4.50;;
82526;SDS011;72188;41.974;21.456;2023-12-07T08:57:02;6.15;;;4.97;;
82526;SDS011;72188;41.974;21.456;2023-12-07T08:59:28;7.15;;;5.40;;
82526;SDS011;72188;41.974;21.456;2023-12-07T09:01:55;9.93;;;6.78;;
82526;SDS011;72188;41.974;21.456;2023-12-07T09:04:21;8.15;;;5.90;;
82526;SDS011;72188;41.974;21.456;2023-12-07T09:06:47;4.03;;;3.63;;
82526;SDS011;72188;41.974;21.456;2023-12-07T09:09:15;14.60;;;8.00;;
82526;SDS011;72188;41.974;21.456;2023-12-07T09:11:41;9.02;;;7.38;;
82526;SDS011;72188;41.974;21.456;2023-12-07T09:14:07;10.52;;;5.75;;
82526;SDS011;72188;41.974;21.456;2023-12-07T09:16:33;14.63;;;8.07;;
82526;SDS011;72188;41.974;21.456;2023-12-07T09:18:59;8.55;;;4.55;;
82526;SDS011;72188;41.974;21.456;2023-12-07T09:21:26;5.40;;;3.90;;
82526;SDS011;72188;41.974;21.456;2023-12-07T09:23:53;4.75;;;3.40;;
82526;SDS011;72188;41.974;21.456;2023-12-07T09:26:19;8.48;;;5.43;;
82526;SDS011;72188;41.974;21.456;2023-12-07T09:28:45;5.80;;;4.05;;
82526;SDS011;72188;41.974;21.456;2023-12-07T09:31:11;6.53;;;3.65;;
82526;SDS011;72188;41.974;21.456;2023-12-07T09:33:37;5.70;;;4.13;;
82526;SDS011;72188;41.974;21.456;2023-12-07T09:36:03;6.68;;;4.53;;
82526;SDS011;72188;41.974;21.456;2023-12-07T09:38:34;7.13;;;4.35;;
82526;SDS011;72188;41.974;21.456;2023-12-07T09:41:01;5.05;;;4.10;;
82526;SDS011;72188;41.974;21.456;2023-12-07T09:43:28;10.38;;;6.47;;
82526;SDS011;72188;41.974;21.456;2023-12-07T09:45:54;8.40;;;5.68;;
82526;SDS011;72188;41.974;21.456;2023-12-07T09:48:21;9.82;;;6.38;;
82526;SDS011;72188;41.974;21.456;2023-12-07T09:50:47;11.40;;;7.43;;
82526;SDS011;72188;41.974;21.456;2023-12-07T09:53:13;10.75;;;8.07;;
82526;SDS011;72188;41.974;21.456;2023-12-07T09:55:39;19.23;;;13.20;;
82526;SDS011;72188;41.974;21.456;2023-12-07T09:58:06;21.23;;;15.13;;
82526;SDS011;72188;41.974;21.456;2023-12-07T10:00:32;15.23;;;10.15;;
82526;SDS011;72188;41.974;21.456;2023-12-07T10:02:58;13.55;;;9.05;;
82526;SDS011;72188;41.974;21.456;2023-12-07T10:05:24;9.90;;;7.15;;
82526;SDS011;72188;41.974;21.456;2023-12-07T10:07:50;10.32;;;7.10;;
82526;SDS011;72188;41.974;21.456;2023-12-07T10:10:17;9.65;;;6.13;;
82526;SDS011;72188;41.974;21.456;2023-12-07T10:12:47;11.18;;;7.57;;
82526;SDS011;72188;41.974;21.456;2023-12-07T10:15:14;14.90;;;9.95;;
82526;SDS011;72188;41.974;21.456;2023-12-07T10:20:14;9.05;;;5.38;;
82526;SDS011;72188;41.974;21.456;2023-12-07T10:22:40;18.02;;;11.45;;
82526;SDS011;72188;41.974;21.456;2023-12-07T10:25:07;21.65;;;13.52;;
82526;SDS011;72188;41.974;21.456;2023-12-07T10:27:33;19.52;;;13.50;;
82526;SDS011;72188;41.974;21.456;2023-12-07T10:30:00;27.85;;;21.17;;
82526;SDS011;72188;41.974;21.456;2023-12-07T10:32:26;25.40;;;16.42;;
82526;SDS011;72188;41.974;21.456;2023-12-07T10:34:53;25.38;;;15.35;;
82526;SDS011;72188;41.974;21.456;2023-12-07T10:37:21;21.67;;;14.02;;
82526;SDS011;72188;41.974;21.456;2023-12-07T10:39:48;15.73;;;11.45;;
82526;SDS011;72188;41.974;21.456;2023-12-07T10:42:14;8.50;;;5.78;;
82526;SDS011;72188;41.974;21.456;2023-12-07T10:44:42;6.35;;;4.82;;
82526;SDS011;72188;41.974;21.456;2023-12-07T10:47:12;4.43;;;3.78;;
82526;SDS011;72188;41.974;21.456;2023-12-07T10:49:40;8.77;;;6.63;;
82526;SDS011;72188;41.974;21.456;2023-12-07T10:52:10;6.03;;;4.55;;
82526;SDS011;72188;41.974;21.456;2023-12-07T10:54:41;10.93;;;8.07;;
82526;SDS011;72188;41.974;21.456;2023-12-07T10:57:09;10.70;;;8.93;;
82526;SDS011;72188;41.974;21.456;2023-12-07T10:59:36;10.32;;;7.72;;
82526;SDS011;72188;41.974;21.456;2023-12-07T11:02:02;10.45;;;6.63;;
82526;SDS011;72188;41.974;21.456;2023-12-07T11:04:31;14.20;;;9.40;;
82526;SDS011;72188;41.974;21.456;2023-12-07T11:06:59;10.32;;;7.55;;
82526;SDS011;72188;41.974;21.456;2023-12-07T11:09:30;12.73;;;9.32;;
82526;SDS011;72188;41.974;21.456;2023-12-07T11:12:09;7.60;;;5.80;;
82526;SDS011;72188;41.974;21.456;2023-12-07T11:14:38;10.45;;;6.75;;
82526;SDS011;72188;41.974;21.456;2023-12-07T11:17:04;8.10;;;5.25;;
82526;SDS011;72188;41.974;21.456;2023-12-07T11:22:01;9.07;;;5.50;;
82526;SDS011;72188;41.974;21.456;2023-12-07T11:24:28;12.48;;;7.70;;
82526;SDS011;72188;41.974;21.456;2023-12-07T11:26:55;11.82;;;8.32;;
82526;SDS011;72188;41.974;21.456;2023-12-07T11:29:23;12.52;;;7.20;;
82526;SDS011;72188;41.974;21.456;2023-12-07T11:31:50;10.57;;;7.20;;
82526;SDS011;72188;41.974;21.456;2023-12-07T11:37:01;21.77;;;12.63;;
82526;SDS011;72188;41.974;21.456;2023-12-07T11:39:28;14.10;;;8.80;;
82526;SDS011;72188;41.974;21.456;2023-12-07T11:41:55;17.63;;;9.70;;
82526;SDS011;72188;41.974;21.456;2023-12-07T11:44:24;12.13;;;7.82;;
82526;SDS011;72188;41.974;21.456;2023-12-07T11:46:50;24.58;;;9.85;;
82526;SDS011;72188;41.974;21.456;2023-12-07T11:49:16;8.65;;;5.05;;
82526;SDS011;72188;41.974;21.456;2023-12-07T11:51:42;8.30;;;5.28;;
82526;SDS011;72188;41.974;21.456;2023-12-07T11:54:09;12.57;;;9.20;;
82526;SDS011;72188;41.974;21.456;2023-12-07T11:56:36;10.07;;;5.95;;
82526;SDS011;72188;41.974;21.456;2023-12-07T11:59:02;12.93;;;8.20;;
82526;SDS011;72188;41.974;21.456;2023-12-07T12:01:28;12.45;;;7.70;;
82526;SDS011;72188;41.974;21.456;2023-12-07T12:03:55;12.38;;;9.02;;
82526;SDS011;72188;41.974;21.456;2023-12-07T12:06:23;12.20;;;8.25;;
82526;SDS011;72188;41.974;21.456;2023-12-07T12:08:49;7.47;;;6.60;;
82526;SDS011;72188;41.974;21.456;2023-12-07T12:11:15;28.00;;;9.55;;
82526;SDS011;72188;41.974;21.456;2023-12-07T12:13:41;12.82;;;6.10;;
82526;SDS011;72188;41.974;21.456;2023-12-07T12:16:07;11.57;;;7.00;;
82526;SDS011;72188;41.974;21.456;2023-12-07T12:18:34;9.88;;;6.70;;
82526;SDS011;72188;41.974;21.456;2023-12-07T12:21:00;9.38;;;6.38;;
82526;SDS011;72188;41.974;21.456;2023-12-07T12:23:26;6.95;;;6.25;;
82526;SDS011;72188;41.974;21.456;2023-12-07T12:25:53;7.32;;;5.68;;
82526;SDS011;72188;41.974;21.456;2023-12-07T12:28:20;7.40;;;5.65;;
82526;SDS011;72188;41.974;21.456;2023-12-07T12:33:13;8.93;;;6.07;;
82526;SDS011;72188;41.974;21.456;2023-12-07T12:35:40;7.63;;;5.35;;
82526;SDS011;72188;41.974;21.456;2023-12-07T12:38:12;7.72;;;6.03;;
82526;SDS011;72188;41.974;21.456;2023-12-07T12:40:39;8.07;;;5.03;;
82526;SDS011;72188;41.974;21.456;2023-12-07T12:43:06;9.25;;;6.88;;
82526;SDS011;72188;41.974;21.456;2023-12-07T12:45:33;7.20;;;5.55;;
82526;SDS011;72188;41.974;21.456;2023-12-07T12:47:59;6.53;;;5.10;;
82526;SDS011;72188;41.974;21.456;2023-12-07T12:50:32;5.13;;;4.03;;
82526;SDS011;72188;41.974;21.456;2023-12-07T12:52:58;9.02;;;5.65;;
82526;SDS011;72188;41.974;21.456;2023-12-07T12:55:28;8.68;;;6.20;;
82526;SDS011;72188;41.974;21.456;2023-12-07T12:57:55;9.70;;;7.05;;
82526;SDS011;72188;41.974;21.456;2023-12-07T13:00:21;9.48;;;6.95;;
82526;SDS011;72188;41.974;21.456;2023-12-07T13:02:47;9.43;;;6.47;;
82526;SDS011;72188;41.974;21.456;2023-12-07T13:05:14;7.35;;;6.30;;
82526;SDS011;72188;41.974;21.456;2023-12-07T13:07:40;8.30;;;4.75;;
82526;SDS011;72188;41.974;21.456;2023-12-07T13:10:06;14.43;;;5.28;;
82526;SDS011;72188;41.974;21.456;2023-12-07T13:12:33;9.13;;;5.80;;
82526;SDS011;72188;41.974;21.456;2023-12-07T13:15:00;7.07;;;4.68;;
82526;SDS011;72188;41.974;21.456;2023-12-07T13:17:26;10.05;;;5.50;;
82526;SDS011;72188;41.974;21.456;2023-12-07T13:19:52;9.60;;;6.55;;
82526;SDS011;72188;41.974;21.456;2023-12-07T13:22:19;7.88;;;6.00;;
82526;SDS011;72188;41.974;21.456;2023-12-07T13:24:47;7.93;;;5.72;;
82526;SDS011;72188;41.974;21.456;2023-12-07T13:27:15;10.73;;;6.35;;
82526;SDS011;72188;41.974;21.456;2023-12-07T13:29:41;9.10;;;5.95;;
82526;SDS011;72188;41.974;21.456;2023-12-07T13:32:07;8.95;;;5.70;;
82526;SDS011;72188;41.974;21.456;2023-12-07T13:34:35;9.82;;;7.03;;
82526;SDS011;72188;41.974;21.456;2023-12-07T13:37:01;7.50;;;5.43;;
82526;SDS011;72188;41.974;21.456;2023-12-07T13:39:27;10.10;;;7.43;;
82526;SDS011;72188;41.974;21.456;2023-12-07T13:41:54;11.73;;;6.20;;
82526;SDS011;72188;41.974;21.456;2023-12-07T13:44:21;9.20;;;6.70;;
82526;SDS011;72188;41.974;21.456;2023-12-07T13:46:49;6.32;;;4.32;;
82526;SDS011;72188;41.974;21.456;2023-12-07T13:49:15;11.20;;;6.75;;
82526;SDS011;72188;41.974;21.456;2023-12-07T13:51:41;17.60;;;8.57;;
82526;SDS011;72188;41.974;21.456;2023-12-07T13:54:07;6.72;;;4.07;;
82526;SDS011;72188;41.974;21.456;2023-12-07T13:56:34;9.95;;;6.63;;
82526;SDS011;72188;41.974;21.456;2023-12-07T13:59:00;10.07;;;6.70;;
82526;SDS011;72188;41.974;21.456;2023-12-07T14:01:27;6.30;;;4.88;;
82526;SDS011;72188;41.974;21.456;2023-12-07T14:03:53;8.98;;;6.18;;
82526;SDS011;72188;41.974;21.456;2023-12-07T14:06:24;7.53;;;5.45;;
82526;SDS011;72188;41.974;21.456;2023-12-07T14:08:50;8.80;;;6.15;;
82526;SDS011;72188;41.974;21.456;2023-12-07T14:11:17;12.68;;;8.40;;
82526;SDS011;72188;41.974;21.456;2023-12-07T14:13:43;14.93;;;11.43;;
82526;SDS011;72188;41.974;21.456;2023-12-07T14:16:12;9.93;;;6.30;;
82526;SDS011;72188;41.974;21.456;2023-12-07T14:18:38;8.68;;;6.15;;
82526;SDS011;72188;41.974;21.456;2023-12-07T14:21:04;8.85;;;6.30;;
82526;SDS011;72188;41.974;21.456;2023-12-07T14:23:30;16.33;;;7.57;;
82526;SDS011;72188;41.974;21.456;2023-12-07T14:25:58;16.95;;;10.90;;
82526;SDS011;72188;41.974;21.456;2023-12-07T14:28:24;10.05;;;6.63;;
82526;SDS011;72188;41.974;21.456;2023-12-07T14:30:53;9.25;;;6.63;;
82526;SDS011;72188;41.974;21.456;2023-12-07T14:33:21;7.57;;;5.43;;
82526;SDS011;72188;41.974;21.456;2023-12-07T14:35:47;7.88;;;6.10;;
82526;SDS011;72188;41.974;21.456;2023-12-07T14:38:14;6.32;;;4.72;;